Metar z połowy godziny Komunikat METAR ze strony awiacja.imgw.pl Metar G30 EPPW METAR EPPW 200930Z 17010KT CAVOK 30/14 Q1009 RMK 303 038 4/4=